createdAt,value
2019-02-27T17:52:55.681Z,30.38
2019-02-27T17:54:05.872Z,30.47
2019-02-27T17:55:16.038Z,30.38
2019-02-27T17:56:26.187Z,30.38
2019-02-27T17:57:38.297Z,30.38
2019-02-27T17:58:49.383Z,30.38
2019-02-27T17:59:59.750Z,30.29
2019-02-27T18:01:09.932Z,30.29
2019-02-27T18:02:21.750Z,30.38
2019-02-27T18:03:36.288Z,30.57
2019-02-27T18:04:53.859Z,30.67
2019-02-27T18:06:04.090Z,30.96
2019-02-27T18:07:14.295Z,30.76
2019-02-27T18:08:24.443Z,30.67
2019-02-27T18:09:34.603Z,30.84
2019-02-27T18:10:45.884Z,30.96
2019-02-27T18:11:56.065Z,31.15
2019-02-27T18:13:06.336Z,31.04
2019-02-27T18:14:16.496Z,31.13
2019-02-27T18:15:28.053Z,31.32
2019-02-27T18:16:38.227Z,31.23
2019-02-27T18:17:48.377Z,31.8
2019-02-27T18:18:58.840Z,31.71
2019-02-27T18:20:09.059Z,31.9
2019-02-27T18:21:19.227Z,31.99
2019-02-27T18:22:30.775Z,31.8
2019-02-27T18:23:40.943Z,31.9
2019-02-27T18:24:51.058Z,31.9
2019-02-27T18:26:02.897Z,31.99
2019-02-27T18:27:18.267Z,32.09
2019-02-27T18:28:35.355Z,31.71
2019-02-27T18:29:46.280Z,31.99
2019-02-27T18:30:56.471Z,32.47
2019-02-27T18:32:09.031Z,31.71
2019-02-27T18:33:19.993Z,32.07
2019-02-27T18:34:30.162Z,32.17
2019-02-27T18:35:40.357Z,32.26
2019-02-27T18:36:51.220Z,32.07
2019-02-27T18:38:01.451Z,32.55
2019-02-27T18:39:11.666Z,32.55
2019-02-27T18:40:21.866Z,32.65
2019-02-27T18:41:32.078Z,32.75
2019-02-27T18:42:42.813Z,32.36
2019-02-27T18:43:58.395Z,32.46
2019-02-27T18:45:17.515Z,32.84
2019-02-27T18:46:28.053Z,32.75
2019-02-27T18:47:39.802Z,32.75
2019-02-27T18:48:50.015Z,32.75
2019-02-27T18:50:00.228Z,32.84
2019-02-27T18:51:10.179Z,33.03
2019-02-27T18:52:24.005Z,32.93
2019-02-27T18:53:34.876Z,33.03
2019-02-27T18:54:50.456Z,33.03
2019-02-27T18:56:04.559Z,33.22
2019-02-27T18:57:15.008Z,33.41
2019-02-27T18:58:25.188Z,33.59
2019-02-27T18:59:35.407Z,33.61
2019-02-27T19:00:45.650Z,33.87
2019-02-27T19:01:55.917Z,33.87
2019-02-27T19:03:06.107Z,33.59
2019-02-27T19:04:16.017Z,33.97
2019-02-27T19:05:26.445Z,33.97
2019-02-27T19:06:36.620Z,34.06
2019-02-27T19:07:56.515Z,34.26
2019-02-27T19:09:06.810Z,34.06
2019-02-27T19:10:17.626Z,34.06
2019-02-27T19:11:27.829Z,34.36
2019-02-27T19:12:37.982Z,34.26
2019-02-27T19:13:48.181Z,34.55
2019-02-27T19:14:58.382Z,34.74
2019-02-27T19:16:14.119Z,34.72
2019-02-27T19:17:32.558Z,34.93
2019-02-27T19:18:44.940Z,35.12
2019-02-27T19:19:55.129Z,35.1
2019-02-27T19:21:05.066Z,35.2
2019-02-27T19:22:15.233Z,35.2
2019-02-27T19:23:25.716Z,35.39
2019-02-27T19:24:35.919Z,35.39
2019-02-27T19:25:45.819Z,35.29
2019-02-27T19:26:56.015Z,35.68
2019-02-27T19:28:05.963Z,35.68
2019-02-27T19:29:16.152Z,35.58
2019-02-27T19:30:26.404Z,35.58
2019-02-27T19:31:37.842Z,35.49
2019-02-27T19:32:48.278Z,35.86
2019-02-27T19:34:07.330Z,35.49
2019-02-27T19:35:23.894Z,35.68
2019-02-27T19:36:34.157Z,35.86
2019-02-27T19:37:44.354Z,36.25
2019-02-27T19:38:54.583Z,36.15
2019-02-27T19:40:04.758Z,36.15
2019-02-27T19:41:15.034Z,36.35
2019-02-27T19:42:24.898Z,36.44
2019-02-27T19:43:35.062Z,36.25
2019-02-27T19:44:45.285Z,36.33
2019-02-27T19:45:55.466Z,36.61
2019-02-27T19:47:05.710Z,36.82
2019-02-27T19:48:15.893Z,36.61
2019-02-27T19:49:26.075Z,36.82
2019-02-27T19:50:44.844Z,36.8
2019-02-27T19:51:57.926Z,37.19
2019-02-27T19:53:09.541Z,37.19
2019-02-27T19:54:21.100Z,36.99
2019-02-27T19:55:31.292Z,36.71
2019-02-27T19:56:41.508Z,36.61
2019-02-27T19:57:51.768Z,36.61
2019-02-27T19:59:01.958Z,36.61
2019-02-27T20:00:12.867Z,36.43
2019-02-27T20:01:22.810Z,36.71
2019-02-27T20:02:32.996Z,36.9
2019-02-27T20:03:43.289Z,36.9
2019-02-27T20:04:53.479Z,36.9
2019-02-27T20:06:03.639Z,36.99
2019-02-27T20:07:14.140Z,36.99
2019-02-27T20:08:26.304Z,36.8
2019-02-27T20:09:36.721Z,36.9
2019-02-27T20:10:46.818Z,37.09
2019-02-27T20:11:57.056Z,36.8
2019-02-27T20:13:09.405Z,36.9
2019-02-27T20:14:19.781Z,36.9
2019-02-27T20:15:30.012Z,36.71
2019-02-27T20:16:40.215Z,37.28
2019-02-27T20:17:50.429Z,37.28
2019-02-27T20:19:00.652Z,36.8
2019-02-27T20:20:10.827Z,36.99
2019-02-27T20:21:21.065Z,37.09
2019-02-27T20:22:31.238Z,37.09
2019-02-27T20:23:41.440Z,36.99
2019-02-27T20:24:51.664Z,36.99
2019-02-27T20:26:01.593Z,36.8
2019-02-27T20:27:25.836Z,36.8
2019-02-27T20:28:37.669Z,36.79
2019-02-27T20:29:47.842Z,36.88
2019-02-27T20:30:58.057Z,37.17
2019-02-27T20:32:08.237Z,37.17
2019-02-27T20:33:18.425Z,37.46
2019-02-27T20:34:30.279Z,37.65
2019-02-27T20:35:40.469Z,37.55
2019-02-27T20:36:50.683Z,37.55
2019-02-27T20:38:01.620Z,37.74
2019-02-27T20:39:12.000Z,37.65
2019-02-27T20:40:22.008Z,37.74
2019-02-27T20:41:43.988Z,38.12
2019-02-27T20:42:57.536Z,37.74
2019-02-27T20:44:07.730Z,37.93
2019-02-27T20:45:17.919Z,38.12
2019-02-27T20:46:29.759Z,38.32
2019-02-27T20:47:39.977Z,38.32
2019-02-27T20:48:50.206Z,38.32
2019-02-27T20:50:00.497Z,39.08
2019-02-27T20:51:11.981Z,38.98
2019-02-27T20:52:22.164Z,38.89
2019-02-27T20:53:32.383Z,38.98
2019-02-27T20:54:42.543Z,39.18
2019-02-27T20:55:53.822Z,39.18
2019-02-27T20:57:08.062Z,38.98
2019-02-27T20:58:22.065Z,38.89
2019-02-27T20:59:32.445Z,38.49
2019-02-27T21:00:43.270Z,38.96
2019-02-27T21:01:53.449Z,39.15
2019-02-27T21:03:05.174Z,39.06
2019-02-27T21:04:15.388Z,39.15
2019-02-27T21:05:27.199Z,39.73
2019-02-27T21:06:37.375Z,39.83
2019-02-27T21:07:52.910Z,39.73
2019-02-27T21:09:13.566Z,39.92
2019-02-27T21:10:24.553Z,40.2
2019-02-27T21:11:36.105Z,40.37
2019-02-27T21:12:56.204Z,40.47
2019-02-27T21:14:06.365Z,40.66
2019-02-27T21:15:16.569Z,40.69
2019-02-27T21:16:27.974Z,40.59
2019-02-27T21:17:38.175Z,40.78
2019-02-27T21:18:48.447Z,40.69
2019-02-27T21:20:00.421Z,40.69
2019-02-27T21:21:16.938Z,40.66
2019-02-27T21:22:30.355Z,40.57
2019-02-27T21:23:40.525Z,40.66
2019-02-27T21:24:50.812Z,40.76
2019-02-27T21:26:01.007Z,40.47
2019-02-27T21:27:11.245Z,40.86
2019-02-27T21:28:23.839Z,41.43
2019-02-27T21:29:34.000Z,41.81
2019-02-27T21:30:51.743Z,41.81
2019-02-27T21:32:04.671Z,41.33
2019-02-27T21:33:14.842Z,41.62
2019-02-27T21:34:25.021Z,41.81
2019-02-27T21:35:35.200Z,42.1
2019-02-27T21:36:45.364Z,41.71
2019-02-27T21:37:55.558Z,42
2019-02-27T21:39:05.703Z,41.62
2019-02-27T21:40:15.889Z,42.1
2019-02-27T21:41:26.101Z,42.19
2019-02-27T21:42:36.260Z,42.77
2019-02-27T21:43:46.470Z,41.79
2019-02-27T21:45:05.627Z,41.41
2019-02-27T21:46:15.760Z,41.69
2019-02-27T21:47:25.904Z,41.69
2019-02-27T21:48:37.672Z,42.55
2019-02-27T21:49:47.816Z,42.08
2019-02-27T21:50:58.146Z,42.36
2019-02-27T21:52:09.256Z,42.36
2019-02-27T21:53:26.023Z,42.27
2019-02-27T21:54:41.881Z,42.08
2019-02-27T21:55:52.015Z,42.08
2019-02-27T21:57:02.256Z,42.55
2019-02-27T21:58:22.307Z,42.55
2019-02-27T21:59:41.985Z,42.27
2019-02-27T22:00:52.144Z,42.08
2019-02-27T22:02:02.297Z,42.17
2019-02-27T22:03:12.486Z,42.46
2019-02-27T22:04:22.644Z,42.46
2019-02-27T22:05:42.221Z,42.46
2019-02-27T22:06:58.394Z,42.36
2019-02-27T22:08:08.795Z,42.65
2019-02-27T22:09:18.940Z,42.74
2019-02-27T22:10:28.844Z,42.55
2019-02-27T22:11:38.990Z,42.74
2019-02-27T22:12:49.151Z,42.93
2019-02-27T22:13:59.292Z,42.65
2019-02-27T22:15:09.474Z,42.65
2019-02-27T22:16:29.229Z,43.13
2019-02-27T22:17:40.166Z,43.32
2019-02-27T22:18:50.439Z,43.51
2019-02-27T22:20:00.580Z,43.32
2019-02-27T22:21:10.737Z,43.89
2019-02-27T22:22:22.100Z,43.7
2019-02-27T22:23:32.286Z,43.89
2019-02-27T22:24:42.164Z,44.08
2019-02-27T22:25:52.319Z,43.98
2019-02-27T22:27:09.139Z,43.98
2019-02-27T22:28:23.145Z,44.27
2019-02-27T22:29:34.199Z,44.37
2019-02-27T22:30:44.322Z,44.37
2019-02-27T22:31:54.456Z,44.27
2019-02-27T22:33:04.578Z,44.27
2019-02-27T22:34:14.448Z,44.37
2019-02-27T22:35:24.579Z,43.98
2019-02-27T22:36:40.547Z,44.17
2019-02-27T22:37:55.212Z,43.98
2019-02-27T22:39:05.370Z,43.98
2019-02-27T22:40:15.495Z,43.98
2019-02-27T22:41:25.641Z,44.08
2019-02-27T22:42:35.752Z,43.98
2019-02-27T22:43:53.154Z,44.08
2019-02-27T22:45:06.795Z,44.17
2019-02-27T22:46:19.024Z,44.15
2019-02-27T22:47:29.167Z,43.96
2019-02-27T22:48:39.293Z,43.96
2019-02-27T22:49:49.414Z,44.06
2019-02-27T22:50:59.533Z,43.87
2019-02-27T22:52:09.657Z,43.96
2019-02-27T22:53:26.150Z,44.06
2019-02-27T22:54:39.352Z,44.06
2019-02-27T22:55:49.205Z,44.06
2019-02-27T22:56:59.333Z,44.15
2019-02-27T22:58:09.461Z,43.68
2019-02-27T22:59:19.571Z,44.06
2019-02-27T23:00:29.744Z,43.89
2019-02-27T23:01:39.850Z,43.89
2019-02-27T23:02:55.962Z,44.08
2019-02-27T23:04:07.767Z,44.06
2019-02-27T23:05:17.891Z,43.89
2019-02-27T23:06:28.010Z,43.89
2019-02-27T23:07:38.188Z,43.98
2019-02-27T23:08:48.308Z,43.89
2019-02-27T23:10:00.641Z,43.41
2019-02-27T23:11:10.766Z,43.13
2019-02-27T23:12:20.638Z,43.13
2019-02-27T23:13:30.767Z,43.32
2019-02-27T23:14:40.896Z,43.41
2019-02-27T23:15:57.783Z,43.32
2019-02-27T23:17:07.638Z,43.41
2019-02-27T23:18:17.761Z,43.41
2019-02-27T23:19:27.948Z,43.22
2019-02-27T23:20:38.073Z,43.32
2019-02-27T23:21:48.251Z,43.89
2019-02-27T23:23:05.012Z,43.96
2019-02-27T23:24:15.136Z,43.96
2019-02-27T23:25:25.254Z,43.87
2019-02-27T23:26:35.376Z,43.96
2019-02-27T23:27:45.230Z,43.96
2019-02-27T23:28:55.369Z,43.87
2019-02-27T23:30:08.329Z,43.39
2019-02-27T23:31:25.570Z,43.29
2019-02-27T23:32:35.697Z,43.2
2019-02-27T23:33:45.822Z,43.49
2019-02-27T23:34:55.945Z,43.01
2019-02-27T23:36:06.051Z,43.29
2019-02-27T23:37:17.127Z,43.29
2019-02-27T23:38:27.220Z,43.39
2019-02-27T23:39:44.930Z,43.1
2019-02-27T23:40:55.056Z,43.01
2019-02-27T23:42:05.160Z,42.82
2019-02-27T23:43:15.265Z,42.72
2019-02-27T23:44:27.134Z,42.72
2019-02-27T23:45:44.430Z,42.91
2019-02-27T23:46:59.761Z,42.91
2019-02-27T23:48:09.880Z,42.72
2019-02-27T23:49:19.743Z,42.82
2019-02-27T23:50:29.847Z,42.63
2019-02-27T23:51:40.004Z,42.44
2019-02-27T23:52:55.794Z,42.44
2019-02-27T23:54:05.927Z,42.53
2019-02-27T23:55:16.048Z,42.34
2019-02-27T23:56:26.163Z,42.53
2019-02-27T23:57:36.284Z,42.63
2019-02-27T23:58:46.395Z,41.96
2019-02-27T23:59:56.512Z,42.15
